createdAt,value
2018-05-31T00:01:29.432Z,18.77
2018-05-31T00:03:57.710Z,15.53
2018-05-31T00:06:25.959Z,14.43
2018-05-31T00:08:54.226Z,16.83
2018-05-31T00:11:22.497Z,13.57
2018-05-31T00:13:50.744Z,11.90
2018-05-31T00:16:19.799Z,12.83
2018-05-31T00:18:48.071Z,19.47
2018-05-31T00:21:16.344Z,20.63
2018-05-31T00:23:44.621Z,16.33
2018-05-31T00:26:12.884Z,15.00
2018-05-31T00:28:41.154Z,11.10
2018-05-31T00:31:09.424Z,13.83
2018-05-31T00:33:37.719Z,20.30
2018-05-31T00:36:05.968Z,13.33
2018-05-31T00:38:34.225Z,17.10
2018-05-31T00:41:03.265Z,17.20
2018-05-31T00:43:31.549Z,22.07
2018-05-31T00:45:59.826Z,21.17
2018-05-31T00:48:28.094Z,14.43
2018-05-31T00:50:56.361Z,16.67
2018-05-31T00:53:24.650Z,15.17
2018-05-31T00:56:04.844Z,19.10
2018-05-31T00:58:34.094Z,22.27
2018-05-31T01:01:02.353Z,14.43
2018-05-31T01:03:30.609Z,16.73
2018-05-31T01:05:58.883Z,13.83
2018-05-31T01:08:27.146Z,14.23
2018-05-31T01:10:56.181Z,16.17
2018-05-31T01:13:24.440Z,16.90
2018-05-31T01:15:52.706Z,18.10
2018-05-31T01:18:20.973Z,20.23
2018-05-31T01:20:50.040Z,14.83
2018-05-31T01:23:18.314Z,16.50
2018-05-31T01:25:46.636Z,16.40
2018-05-31T01:28:14.914Z,18.90
2018-05-31T01:30:43.182Z,15.20
2018-05-31T01:33:12.202Z,19.20
2018-05-31T01:35:40.481Z,20.43
2018-05-31T01:38:20.745Z,21.33
2018-05-31T01:40:48.996Z,14.50
2018-05-31T01:43:17.252Z,13.23
2018-05-31T01:45:46.306Z,19.13
2018-05-31T01:48:14.587Z,16.30
2018-05-31T01:50:42.833Z,18.20
2018-05-31T01:53:11.112Z,15.73
2018-05-31T01:55:39.369Z,13.50
2018-05-31T01:58:07.632Z,16.30
2018-05-31T02:00:36.655Z,14.20
2018-05-31T02:03:04.916Z,18.20
2018-05-31T02:05:33.176Z,16.67
2018-05-31T02:08:02.233Z,18.50
2018-05-31T02:10:30.517Z,19.93
2018-05-31T02:12:58.781Z,20.17
2018-05-31T02:15:27.059Z,17.73
2018-05-31T02:17:55.331Z,24.37
2018-05-31T02:20:23.634Z,20.67
2018-05-31T02:22:52.659Z,24.73
2018-05-31T02:25:20.927Z,21.17
2018-05-31T02:27:49.237Z,20.27
2018-05-31T02:30:17.483Z,22.93
2018-05-31T02:32:45.754Z,20.33
2018-05-31T02:35:14.788Z,20.43
2018-05-31T02:37:43.072Z,32.83
2018-05-31T02:40:11.335Z,21.23
2018-05-31T02:42:39.584Z,25.33
2018-05-31T02:45:07.875Z,19.70
2018-05-31T02:47:36.129Z,22.03
2018-05-31T02:50:04.433Z,17.77
2018-05-31T02:52:32.693Z,26.67
2018-05-31T02:55:00.969Z,24.60
2018-05-31T02:57:29.231Z,22.33
2018-05-31T02:59:58.266Z,23.60
2018-05-31T03:02:26.525Z,22.00
2018-05-31T03:04:54.779Z,23.00
2018-05-31T03:07:23.062Z,19.00
2018-05-31T03:09:52.119Z,17.67
2018-05-31T03:12:20.364Z,24.90
2018-05-31T03:14:48.671Z,21.70
2018-05-31T03:17:16.945Z,21.17
2018-05-31T03:19:45.218Z,24.43
2018-05-31T03:22:13.495Z,23.33
2018-05-31T03:24:41.756Z,30.33
2018-05-31T03:27:10.065Z,22.30
2018-05-31T03:29:39.162Z,26.53
2018-05-31T03:32:07.409Z,24.63
2018-05-31T03:34:35.683Z,24.00
2018-05-31T03:37:03.959Z,25.13
2018-05-31T03:39:32.213Z,23.57
2018-05-31T03:42:00.481Z,29.83
2018-05-31T03:44:28.742Z,22.87
2018-05-31T03:46:57.009Z,24.53
2018-05-31T03:49:26.080Z,26.80
2018-05-31T03:51:54.338Z,25.23
2018-05-31T03:54:22.630Z,21.90
2018-05-31T03:56:50.896Z,20.33
2018-05-31T03:59:19.168Z,22.47
2018-05-31T04:01:48.370Z,19.20
2018-05-31T04:04:16.656Z,25.73
2018-05-31T04:06:44.925Z,21.67
2018-05-31T04:09:14.714Z,29.20
2018-05-31T04:11:42.969Z,23.80
2018-05-31T04:14:11.244Z,26.13
2018-05-31T04:16:39.511Z,17.83
2018-05-31T04:19:07.785Z,17.90
2018-05-31T04:21:36.034Z,19.87
2018-05-31T04:24:05.087Z,21.83
2018-05-31T04:26:33.353Z,17.93
2018-05-31T04:29:01.616Z,20.20
2018-05-31T04:31:29.957Z,21.73
2018-05-31T04:33:58.990Z,17.27
2018-05-31T04:36:27.253Z,19.13
2018-05-31T04:38:55.508Z,18.77
2018-05-31T04:41:24.540Z,21.93
2018-05-31T04:43:52.804Z,19.10
2018-05-31T04:46:21.058Z,21.27
2018-05-31T04:48:50.070Z,21.77
2018-05-31T04:51:18.328Z,18.30
2018-05-31T04:53:46.578Z,23.60
2018-05-31T04:56:15.623Z,19.33
2018-05-31T04:58:43.885Z,21.37
2018-05-31T05:01:12.161Z,22.40
2018-05-31T05:03:40.425Z,19.37
2018-05-31T05:06:09.443Z,22.83
2018-05-31T05:08:37.719Z,16.87
2018-05-31T05:11:05.978Z,23.63
2018-05-31T05:13:34.257Z,19.20
2018-05-31T05:16:02.501Z,19.83
2018-05-31T05:18:31.532Z,18.13
2018-05-31T05:20:59.786Z,18.70
2018-05-31T05:23:28.084Z,23.60
2018-05-31T05:25:56.347Z,18.13
2018-05-31T05:28:24.598Z,20.50
2018-05-31T05:30:53.613Z,21.87
2018-05-31T05:33:22.644Z,20.30
2018-05-31T05:35:50.918Z,19.20
2018-05-31T05:38:19.182Z,16.77
2018-05-31T05:40:47.464Z,18.87
2018-05-31T05:43:15.719Z,16.53
2018-05-31T05:45:43.976Z,16.97
2018-05-31T05:48:12.999Z,19.80
2018-05-31T05:50:41.270Z,16.30
2018-05-31T05:53:09.531Z,18.93
2018-05-31T05:55:38.563Z,17.37
2018-05-31T05:58:06.816Z,21.53
2018-05-31T06:00:35.085Z,25.53
2018-05-31T06:03:03.349Z,15.20
2018-05-31T06:05:31.619Z,17.80
2018-05-31T06:08:00.643Z,15.87
2018-05-31T06:10:28.915Z,18.40
2018-05-31T06:12:57.214Z,19.43
2018-05-31T06:15:25.464Z,18.43
2018-05-31T06:17:53.741Z,20.10
2018-05-31T06:20:22.044Z,24.07
2018-05-31T06:22:50.307Z,13.90
2018-05-31T06:25:18.595Z,18.53
2018-05-31T06:27:46.849Z,15.97
2018-05-31T06:30:15.109Z,17.50
2018-05-31T06:32:43.370Z,16.10
2018-05-31T06:35:12.400Z,17.20
2018-05-31T06:37:40.670Z,15.20
2018-05-31T06:40:08.921Z,15.53
2018-05-31T06:42:38.013Z,18.57
2018-05-31T06:45:07.022Z,15.80
2018-05-31T06:47:35.281Z,17.50
2018-05-31T06:50:04.302Z,13.80
2018-05-31T06:52:32.553Z,18.40
2018-05-31T06:55:01.582Z,21.07
2018-05-31T06:57:29.829Z,17.40
2018-05-31T06:59:58.853Z,18.70
2018-05-31T07:02:27.127Z,15.10
2018-05-31T07:04:55.389Z,21.00
2018-05-31T07:07:23.672Z,12.67
2018-05-31T07:09:51.958Z,16.13
2018-05-31T07:12:20.219Z,14.03
2018-05-31T07:14:48.480Z,16.70
2018-05-31T07:17:17.516Z,13.93
2018-05-31T07:19:45.776Z,13.13
2018-05-31T07:22:14.042Z,17.57
2018-05-31T07:24:42.319Z,13.73
2018-05-31T07:27:10.605Z,15.23
2018-05-31T07:29:38.843Z,12.50
2018-05-31T07:32:07.880Z,13.10
2018-05-31T07:34:36.131Z,15.50
2018-05-31T07:37:04.405Z,12.10
2018-05-31T07:39:32.663Z,18.20
2018-05-31T07:42:01.684Z,17.43
2018-05-31T07:44:29.967Z,14.80
2018-05-31T07:46:58.225Z,11.57
2018-05-31T07:49:26.498Z,16.37
2018-05-31T07:51:54.778Z,12.30
2018-05-31T07:54:23.035Z,14.60
2018-05-31T07:56:52.082Z,14.60
2018-05-31T07:59:20.350Z,13.47
2018-05-31T08:01:48.613Z,17.70
2018-05-31T08:04:16.911Z,14.30
2018-05-31T08:06:45.164Z,14.47
2018-05-31T08:09:13.424Z,15.87
2018-05-31T08:11:41.693Z,18.33
2018-05-31T08:14:09.964Z,15.27
2018-05-31T08:16:39.027Z,12.87
2018-05-31T08:19:07.281Z,16.93
2018-05-31T08:21:35.531Z,15.70
2018-05-31T08:24:03.789Z,14.80
2018-05-31T08:26:32.067Z,13.70
2018-05-31T08:29:01.180Z,16.33
2018-05-31T08:31:29.557Z,12.03
2018-05-31T08:33:57.748Z,15.67
2018-05-31T08:36:26.002Z,13.70
2018-05-31T08:38:54.306Z,16.00
2018-05-31T08:41:22.550Z,13.17
2018-05-31T08:43:51.588Z,12.57
2018-05-31T08:46:19.845Z,15.37
2018-05-31T08:48:48.094Z,12.57
2018-05-31T08:51:16.381Z,11.90
2018-05-31T08:53:44.639Z,11.73
2018-05-31T08:56:12.891Z,11.13
2018-05-31T08:58:41.920Z,13.07
2018-05-31T09:01:10.170Z,12.80
2018-05-31T09:03:38.464Z,19.80
2018-05-31T09:06:06.740Z,12.07
2018-05-31T09:08:35.030Z,23.37
2018-05-31T09:11:03.272Z,14.80
2018-05-31T09:13:32.301Z,15.67
2018-05-31T09:16:00.566Z,14.83
2018-05-31T09:18:28.826Z,15.47
2018-05-31T09:20:57.076Z,14.83
2018-05-31T09:23:25.340Z,14.90
2018-05-31T09:25:53.609Z,13.43
2018-05-31T09:28:21.943Z,12.33
2018-05-31T09:30:50.202Z,16.70
2018-05-31T09:33:18.461Z,14.80
2018-05-31T09:35:47.485Z,15.97
2018-05-31T09:38:15.751Z,14.10
2018-05-31T09:40:44.017Z,16.60
2018-05-31T09:43:13.043Z,15.07
2018-05-31T09:45:41.308Z,13.60
2018-05-31T09:48:09.573Z,14.27
2018-05-31T09:50:37.853Z,14.33
2018-05-31T09:53:06.131Z,15.47
2018-05-31T09:55:34.516Z,17.47
2018-05-31T09:58:02.777Z,12.33
2018-05-31T10:00:36.644Z,12.37
2018-05-31T10:03:05.079Z,15.53
2018-05-31T10:05:33.331Z,12.80
2018-05-31T10:08:01.592Z,16.23
2018-05-31T10:10:30.645Z,11.83
2018-05-31T10:12:58.908Z,10.00
2018-05-31T10:15:27.159Z,16.20
2018-05-31T10:17:55.452Z,11.17
2018-05-31T10:20:24.568Z,10.80
2018-05-31T10:22:54.619Z,10.93
2018-05-31T10:25:24.404Z,10.77
2018-05-31T10:27:53.427Z,9.93
2018-05-31T10:30:22.438Z,11.07
2018-05-31T10:32:50.702Z,11.90
2018-05-31T10:35:19.790Z,7.17
2018-05-31T10:37:48.945Z,12.40
2018-05-31T10:40:17.190Z,12.00
2018-05-31T10:42:45.437Z,11.83
2018-05-31T10:45:14.460Z,10.80
2018-05-31T10:47:42.711Z,10.77
2018-05-31T10:50:11.733Z,9.23
2018-05-31T10:52:39.991Z,13.00
2018-05-31T10:55:08.290Z,14.60
2018-05-31T10:57:36.562Z,10.17
2018-05-31T11:00:05.716Z,10.40
2018-05-31T11:02:34.045Z,11.63
2018-05-31T11:05:02.289Z,10.23
2018-05-31T11:07:30.587Z,10.33
2018-05-31T11:09:58.852Z,16.70
2018-05-31T11:12:27.122Z,11.70
2018-05-31T11:14:55.413Z,11.57
2018-05-31T11:17:24.333Z,14.20
2018-05-31T11:19:52.610Z,11.60
2018-05-31T11:22:20.884Z,11.20
2018-05-31T11:24:49.140Z,13.30
2018-05-31T11:27:17.422Z,15.63
2018-05-31T11:29:45.674Z,11.90
2018-05-31T11:32:13.935Z,12.53
2018-05-31T11:34:42.236Z,12.57
2018-05-31T11:37:10.490Z,13.07
2018-05-31T11:39:38.750Z,11.50
2018-05-31T11:42:07.774Z,10.57
2018-05-31T11:44:36.036Z,14.00
2018-05-31T11:47:05.051Z,10.70
2018-05-31T11:49:33.505Z,13.17
2018-05-31T11:52:01.762Z,14.10
2018-05-31T11:54:30.799Z,13.47
2018-05-31T11:56:59.051Z,10.87
2018-05-31T11:59:27.297Z,11.20
2018-05-31T12:01:55.557Z,11.23
2018-05-31T12:04:24.763Z,12.67
2018-05-31T12:06:53.034Z,10.67
2018-05-31T12:09:21.277Z,11.23
2018-05-31T12:11:49.546Z,12.60
2018-05-31T12:14:17.798Z,9.27
2018-05-31T12:16:47.111Z,11.40
2018-05-31T12:19:15.372Z,8.03
2018-05-31T12:21:44.399Z,11.77
2018-05-31T12:24:12.646Z,10.40
2018-05-31T12:26:40.915Z,13.50
2018-05-31T12:29:09.921Z,9.87
2018-05-31T12:31:38.205Z,9.43
2018-05-31T12:34:06.474Z,11.50
2018-05-31T12:36:34.742Z,11.63
2018-05-31T12:39:03.007Z,10.70
2018-05-31T12:41:32.033Z,11.50
2018-05-31T12:44:00.288Z,10.50
2018-05-31T12:46:28.541Z,15.57
2018-05-31T12:48:57.560Z,13.80
2018-05-31T12:51:25.866Z,13.37
2018-05-31T12:53:54.105Z,12.13
2018-05-31T12:56:22.381Z,14.67
2018-05-31T12:58:50.644Z,12.60
2018-05-31T13:01:19.692Z,12.27
2018-05-31T13:03:48.834Z,11.27
2018-05-31T13:06:17.898Z,12.30
2018-05-31T13:08:46.210Z,12.77
2018-05-31T13:11:15.727Z,12.53
2018-05-31T13:13:43.988Z,13.90
2018-05-31T13:16:13.005Z,11.47
2018-05-31T13:18:41.262Z,10.80
2018-05-31T13:21:09.510Z,11.30
2018-05-31T13:23:37.780Z,13.43
2018-05-31T13:26:06.045Z,12.40
2018-05-31T13:28:34.292Z,8.60
2018-05-31T13:31:02.567Z,10.20
2018-05-31T13:33:30.820Z,8.40
2018-05-31T13:35:59.085Z,9.27
2018-05-31T13:38:28.084Z,8.03
2018-05-31T13:40:56.344Z,12.83
2018-05-31T13:43:25.364Z,12.97
2018-05-31T13:45:53.618Z,14.23
2018-05-31T13:48:22.644Z,10.70
2018-05-31T13:50:50.903Z,10.23
2018-05-31T13:53:19.180Z,10.00
2018-05-31T13:55:48.225Z,15.03
2018-05-31T13:58:16.482Z,11.20
2018-05-31T14:00:44.747Z,10.00
2018-05-31T14:03:13.005Z,11.10
2018-05-31T14:05:41.240Z,8.73
2018-05-31T14:08:09.480Z,9.80
2018-05-31T14:10:37.756Z,6.70
2018-05-31T14:13:05.994Z,6.17
2018-05-31T14:15:35.019Z,8.27
2018-05-31T14:18:03.264Z,16.33
2018-05-31T14:20:31.543Z,9.03
2018-05-31T14:23:00.553Z,10.00
2018-05-31T14:25:28.811Z,12.00
2018-05-31T14:27:57.844Z,12.77
2018-05-31T14:30:26.099Z,7.60
2018-05-31T14:32:54.365Z,9.47
2018-05-31T14:35:22.627Z,11.23
2018-05-31T14:37:51.663Z,15.30
2018-05-31T14:40:19.932Z,8.80
2018-05-31T14:42:48.191Z,12.37
2018-05-31T14:45:16.475Z,10.00
2018-05-31T14:47:44.729Z,12.47
2018-05-31T14:50:12.975Z,8.87
2018-05-31T14:52:41.204Z,7.23
2018-05-31T14:55:09.457Z,7.60
2018-05-31T14:57:37.730Z,7.93
2018-05-31T15:00:06.756Z,10.93
2018-05-31T15:02:35.032Z,10.43
2018-05-31T15:05:03.287Z,11.13
2018-05-31T15:07:31.546Z,9.27
2018-05-31T15:10:00.558Z,12.70
2018-05-31T15:12:28.804Z,9.83
2018-05-31T15:14:57.821Z,7.00
2018-05-31T15:17:26.085Z,8.33
2018-05-31T15:19:54.417Z,13.67
2018-05-31T15:22:22.700Z,14.30
2018-05-31T15:24:51.724Z,13.23
2018-05-31T15:27:20.748Z,12.00
2018-05-31T15:29:48.993Z,10.07
2018-05-31T15:32:17.257Z,8.23
2018-05-31T15:34:45.505Z,9.40
2018-05-31T15:37:13.774Z,10.40
2018-05-31T15:39:42.025Z,16.67
2018-05-31T15:42:10.306Z,10.67
2018-05-31T15:44:38.575Z,10.83
2018-05-31T15:47:06.820Z,8.53
2018-05-31T15:49:35.858Z,12.10
2018-05-31T15:52:04.127Z,8.70
2018-05-31T15:54:32.441Z,10.10
2018-05-31T15:57:00.712Z,9.93
2018-05-31T15:59:28.967Z,8.53
2018-05-31T16:01:57.193Z,7.80
2018-05-31T16:04:27.145Z,13.37
2018-05-31T16:06:55.386Z,9.83
2018-05-31T16:09:29.555Z,12.20
2018-05-31T16:11:57.792Z,9.63
2018-05-31T16:14:26.051Z,10.67
2018-05-31T16:16:55.063Z,9.93
2018-05-31T16:19:24.520Z,11.90
2018-05-31T16:21:54.347Z,9.60
2018-05-31T16:24:23.406Z,11.73
2018-05-31T16:26:51.657Z,9.20
2018-05-31T16:29:19.926Z,17.87
2018-05-31T16:31:48.219Z,7.70
2018-05-31T16:34:16.468Z,8.63
2018-05-31T16:36:44.799Z,10.27
2018-05-31T16:39:13.052Z,13.03
2018-05-31T16:41:44.048Z,12.70
2018-05-31T16:44:13.874Z,10.83
2018-05-31T16:46:44.701Z,12.17
2018-05-31T16:49:13.886Z,9.83
2018-05-31T16:51:42.902Z,12.90
2018-05-31T16:54:11.962Z,11.80
2018-05-31T16:56:42.770Z,9.70
2018-05-31T16:59:11.007Z,9.63
2018-05-31T17:01:39.283Z,11.43
2018-05-31T17:04:08.141Z,13.07
2018-05-31T17:06:38.913Z,8.53
2018-05-31T17:09:07.303Z,7.97
2018-05-31T17:11:35.563Z,14.90
2018-05-31T17:14:05.953Z,8.43
2018-05-31T17:16:34.211Z,6.97
2018-05-31T17:19:03.909Z,8.07
2018-05-31T17:21:32.973Z,10.43
2018-05-31T17:24:01.226Z,11.00
2018-05-31T17:26:30.958Z,8.47
2018-05-31T17:28:59.237Z,12.20
2018-05-31T17:31:27.496Z,8.30
2018-05-31T17:33:55.751Z,9.47
2018-05-31T17:36:24.804Z,8.97
2018-05-31T17:38:53.699Z,8.33
2018-05-31T17:41:21.990Z,13.23
2018-05-31T17:43:50.252Z,10.27
2018-05-31T17:46:18.520Z,12.83
2018-05-31T17:48:47.080Z,9.17
2018-05-31T17:51:15.328Z,9.20
2018-05-31T17:53:44.394Z,12.80
2018-05-31T17:56:12.680Z,14.63
2018-05-31T17:58:40.929Z,14.87
2018-05-31T18:01:09.210Z,12.40
2018-05-31T18:03:37.995Z,10.40
2018-05-31T18:06:06.288Z,6.90
2018-05-31T18:08:34.568Z,8.40
2018-05-31T18:11:02.822Z,9.20
2018-05-31T18:13:31.079Z,9.27
2018-05-31T18:15:59.312Z,9.80
2018-05-31T18:18:28.324Z,12.97
2018-05-31T18:20:56.581Z,15.10
2018-05-31T18:23:25.612Z,13.00
2018-05-31T18:25:53.863Z,10.57
2018-05-31T18:28:22.887Z,9.63
2018-05-31T18:30:51.121Z,10.87
2018-05-31T18:33:20.146Z,12.87
2018-05-31T18:35:48.422Z,12.70
2018-05-31T18:38:16.673Z,13.23
2018-05-31T18:40:45.707Z,10.73
2018-05-31T18:43:13.985Z,9.50
2018-05-31T18:45:42.241Z,11.53
2018-05-31T18:48:10.475Z,9.63
2018-05-31T18:50:38.720Z,9.70
2018-05-31T18:53:06.970Z,10.37
2018-05-31T18:55:35.217Z,11.13
2018-05-31T18:58:04.263Z,15.93
2018-05-31T19:00:32.508Z,12.57
2018-05-31T19:03:00.759Z,12.97
2018-05-31T19:05:29.792Z,15.83
2018-05-31T19:07:58.106Z,10.93
2018-05-31T19:10:26.321Z,11.80
2018-05-31T19:13:00.506Z,9.63
2018-05-31T19:15:28.781Z,9.37
2018-05-31T19:17:56.996Z,8.33
2018-05-31T19:20:25.332Z,8.43
2018-05-31T19:22:53.587Z,12.40
2018-05-31T19:25:21.846Z,9.50
2018-05-31T19:27:50.124Z,11.00
2018-05-31T19:30:24.100Z,10.73
2018-05-31T19:32:52.526Z,11.63
2018-05-31T19:35:27.313Z,10.40
2018-05-31T19:37:55.837Z,6.53
2018-05-31T19:40:24.102Z,9.50
2018-05-31T19:42:58.321Z,10.23
2018-05-31T19:45:26.574Z,13.97
2018-05-31T19:47:54.817Z,14.50
2018-05-31T19:50:23.862Z,8.47
2018-05-31T19:52:58.119Z,9.97
2018-05-31T19:55:27.126Z,11.00
2018-05-31T19:58:01.403Z,12.13
2018-05-31T20:00:36.838Z,12.30
2018-05-31T20:03:10.848Z,10.50
2018-05-31T20:05:39.094Z,12.10
2018-05-31T20:08:07.342Z,8.50
2018-05-31T20:10:36.352Z,10.10
2018-05-31T20:13:04.648Z,8.07
2018-05-31T20:15:32.892Z,12.23
2018-05-31T20:18:01.221Z,13.73
2018-05-31T20:20:29.493Z,11.63
2018-05-31T20:22:57.745Z,12.80
2018-05-31T20:25:26.068Z,14.73
2018-05-31T20:27:54.325Z,10.83
2018-05-31T20:30:22.599Z,8.80
2018-05-31T20:32:51.793Z,12.20
2018-05-31T20:35:20.059Z,11.70
2018-05-31T20:37:48.315Z,10.77
2018-05-31T20:40:17.535Z,11.90
2018-05-31T20:42:45.827Z,13.60
2018-05-31T20:45:14.157Z,12.70
2018-05-31T20:47:43.011Z,12.03
2018-05-31T20:50:11.349Z,10.53
2018-05-31T20:52:39.616Z,13.60
2018-05-31T20:55:07.919Z,16.57
2018-05-31T20:57:36.177Z,16.03
2018-05-31T21:00:04.447Z,12.07
2018-05-31T21:02:32.716Z,14.13
2018-05-31T21:05:01.017Z,11.90
2018-05-31T21:07:29.292Z,12.30
2018-05-31T21:09:57.542Z,16.17
2018-05-31T21:12:25.847Z,12.30
2018-05-31T21:14:54.160Z,11.03
2018-05-31T21:17:23.186Z,16.30
2018-05-31T21:19:51.464Z,10.37
2018-05-31T21:22:19.732Z,12.90
2018-05-31T21:24:48.003Z,19.03
2018-05-31T21:27:16.293Z,14.53
2018-05-31T21:29:44.537Z,14.10
2018-05-31T21:32:13.561Z,17.30
2018-05-31T21:34:41.871Z,10.07
2018-05-31T21:37:10.131Z,12.70
2018-05-31T21:39:38.387Z,16.20
2018-05-31T21:42:06.668Z,13.10
2018-05-31T21:44:34.912Z,13.43
2018-05-31T21:47:03.968Z,10.27
2018-05-31T21:49:32.214Z,21.23
2018-05-31T21:52:00.497Z,12.33
2018-05-31T21:54:28.785Z,14.70
2018-05-31T21:56:57.126Z,12.10
2018-05-31T21:59:26.187Z,9.37
2018-05-31T22:01:54.476Z,13.23
2018-05-31T22:04:23.519Z,13.67
2018-05-31T22:06:51.750Z,14.40
2018-05-31T22:09:20.774Z,15.73
2018-05-31T22:11:49.039Z,13.03
2018-05-31T22:14:17.356Z,15.60
2018-05-31T22:16:45.624Z,11.23
2018-05-31T22:19:13.925Z,13.60
2018-05-31T22:21:42.187Z,10.87
2018-05-31T22:24:10.474Z,14.53
2018-05-31T22:26:39.009Z,17.03
2018-05-31T22:29:07.295Z,16.83
2018-05-31T22:31:35.568Z,28.17
2018-05-31T22:34:03.878Z,14.10
2018-05-31T22:36:32.274Z,11.83
2018-05-31T22:39:00.527Z,14.73
2018-05-31T22:41:28.785Z,21.43
2018-05-31T22:43:57.104Z,15.83
2018-05-31T22:46:25.342Z,19.97
2018-05-31T22:48:53.607Z,16.20
2018-05-31T22:51:21.881Z,15.80
2018-05-31T22:53:50.185Z,18.67
2018-05-31T22:56:18.440Z,18.30
2018-05-31T22:58:46.750Z,17.03
2018-05-31T23:01:15.067Z,20.23
2018-05-31T23:03:43.336Z,16.30
2018-05-31T23:06:11.627Z,16.37
2018-05-31T23:08:42.749Z,17.90
2018-05-31T23:11:11.031Z,15.77
2018-05-31T23:13:40.109Z,15.03
2018-05-31T23:16:08.349Z,13.73
2018-05-31T23:18:36.628Z,17.17
2018-05-31T23:21:04.970Z,20.33
2018-05-31T23:23:33.250Z,16.60
2018-05-31T23:26:01.550Z,14.80
2018-05-31T23:28:29.816Z,29.70
2018-05-31T23:30:58.069Z,18.90
2018-05-31T23:33:26.386Z,18.67
2018-05-31T23:35:54.628Z,22.60
2018-05-31T23:38:22.903Z,18.13
2018-05-31T23:40:51.156Z,21.40
2018-05-31T23:43:20.171Z,22.33
2018-05-31T23:45:48.459Z,16.60
2018-05-31T23:48:16.724Z,16.90
2018-05-31T23:50:45.019Z,20.27
2018-05-31T23:53:13.280Z,16.77
2018-05-31T23:55:41.535Z,18.37
2018-05-31T23:58:09.789Z,15.53
